sensor_id;sensor_type;location;lat;lon;timestamp;P1;durP1;ratioP1;P2;durP2;ratioP2
18574;SDS011;9417;16.484;102.872;2022-07-23T00:01:31;6.72;;;5.38;;
18574;SDS011;9417;16.484;102.872;2022-07-23T00:03:39;6.80;;;4.60;;
18574;SDS011;9417;16.484;102.872;2022-07-23T00:05:47;7.30;;;4.95;;
18574;SDS011;9417;16.484;102.872;2022-07-23T00:08:00;7.53;;;4.93;;
18574;SDS011;9417;16.484;102.872;2022-07-23T00:10:16;7.07;;;5.03;;
18574;SDS011;9417;16.484;102.872;2022-07-23T00:12:25;6.43;;;5.70;;
18574;SDS011;9417;16.484;102.872;2022-07-23T00:14:32;8.32;;;6.05;;
18574;SDS011;9417;16.484;102.872;2022-07-23T00:16:41;6.85;;;4.95;;
18574;SDS011;9417;16.484;102.872;2022-07-23T00:18:49;7.35;;;5.20;;
18574;SDS011;9417;16.484;102.872;2022-07-23T00:20:56;7.38;;;5.43;;
18574;SDS011;9417;16.484;102.872;2022-07-23T00:23:03;7.15;;;5.50;;
18574;SDS011;9417;16.484;102.872;2022-07-23T00:25:10;6.82;;;5.53;;
18574;SDS011;9417;16.484;102.872;2022-07-23T00:27:33;7.88;;;5.63;;
18574;SDS011;9417;16.484;102.872;2022-07-23T00:29:41;7.35;;;6.10;;
18574;SDS011;9417;16.484;102.872;2022-07-23T00:31:50;7.60;;;5.95;;
18574;SDS011;9417;16.484;102.872;2022-07-23T00:33:57;8.35;;;5.75;;
18574;SDS011;9417;16.484;102.872;2022-07-23T00:36:05;6.88;;;5.50;;
18574;SDS011;9417;16.484;102.872;2022-07-23T00:38:13;10.45;;;6.90;;
18574;SDS011;9417;16.484;102.872;2022-07-23T00:40:20;8.68;;;6.22;;
18574;SDS011;9417;16.484;102.872;2022-07-23T00:42:28;7.05;;;5.38;;
18574;SDS011;9417;16.484;102.872;2022-07-23T00:44:38;5.93;;;4.75;;
18574;SDS011;9417;16.484;102.872;2022-07-23T00:46:48;8.05;;;5.07;;
18574;SDS011;9417;16.484;102.872;2022-07-23T00:48:58;7.18;;;4.72;;
18574;SDS011;9417;16.484;102.872;2022-07-23T00:51:06;5.90;;;4.85;;
18574;SDS011;9417;16.484;102.872;2022-07-23T00:53:13;7.47;;;4.70;;
18574;SDS011;9417;16.484;102.872;2022-07-23T00:55:21;5.20;;;4.10;;
18574;SDS011;9417;16.484;102.872;2022-07-23T00:57:29;6.38;;;4.50;;
18574;SDS011;9417;16.484;102.872;2022-07-23T00:59:38;7.25;;;4.32;;
18574;SDS011;9417;16.484;102.872;2022-07-23T01:01:45;4.47;;;3.53;;
18574;SDS011;9417;16.484;102.872;2022-07-23T01:03:55;4.90;;;3.72;;
18574;SDS011;9417;16.484;102.872;2022-07-23T01:06:02;6.15;;;4.05;;
18574;SDS011;9417;16.484;102.872;2022-07-23T01:08:10;12.52;;;6.57;;
18574;SDS011;9417;16.484;102.872;2022-07-23T01:10:18;7.25;;;5.80;;
18574;SDS011;9417;16.484;102.872;2022-07-23T01:12:37;6.75;;;5.05;;
18574;SDS011;9417;16.484;102.872;2022-07-23T01:14:45;6.80;;;4.53;;
18574;SDS011;9417;16.484;102.872;2022-07-23T01:16:59;6.65;;;4.85;;
18574;SDS011;9417;16.484;102.872;2022-07-23T01:19:09;4.95;;;4.30;;
18574;SDS011;9417;16.484;102.872;2022-07-23T01:21:17;6.85;;;4.55;;
18574;SDS011;9417;16.484;102.872;2022-07-23T01:23:27;5.35;;;4.30;;
18574;SDS011;9417;16.484;102.872;2022-07-23T01:25:35;5.88;;;4.50;;
18574;SDS011;9417;16.484;102.872;2022-07-23T01:27:42;5.70;;;4.43;;
18574;SDS011;9417;16.484;102.872;2022-07-23T01:29:50;5.50;;;4.13;;
18574;SDS011;9417;16.484;102.872;2022-07-23T01:31:57;5.72;;;4.85;;
18574;SDS011;9417;16.484;102.872;2022-07-23T01:34:05;5.93;;;4.75;;
18574;SDS011;9417;16.484;102.872;2022-07-23T01:36:12;8.95;;;4.53;;
18574;SDS011;9417;16.484;102.872;2022-07-23T01:38:20;5.43;;;4.47;;
18574;SDS011;9417;16.484;102.872;2022-07-23T01:40:28;6.53;;;4.80;;
18574;SDS011;9417;16.484;102.872;2022-07-23T01:42:36;7.47;;;4.65;;
18574;SDS011;9417;16.484;102.872;2022-07-23T01:44:46;6.68;;;4.47;;
18574;SDS011;9417;16.484;102.872;2022-07-23T01:46:55;6.22;;;4.97;;
18574;SDS011;9417;16.484;102.872;2022-07-23T01:49:03;6.10;;;4.50;;
18574;SDS011;9417;16.484;102.872;2022-07-23T01:51:23;7.10;;;4.80;;
18574;SDS011;9417;16.484;102.872;2022-07-23T01:53:42;7.05;;;4.35;;
18574;SDS011;9417;16.484;102.872;2022-07-23T01:55:50;7.28;;;4.25;;
18574;SDS011;9417;16.484;102.872;2022-07-23T01:57:58;5.60;;;4.55;;
18574;SDS011;9417;16.484;102.872;2022-07-23T02:00:06;6.53;;;4.53;;
18574;SDS011;9417;16.484;102.872;2022-07-23T02:02:15;6.38;;;4.60;;
18574;SDS011;9417;16.484;102.872;2022-07-23T02:04:22;5.55;;;4.47;;
18574;SDS011;9417;16.484;102.872;2022-07-23T02:06:31;4.63;;;3.80;;
18574;SDS011;9417;16.484;102.872;2022-07-23T02:08:39;4.55;;;3.70;;
18574;SDS011;9417;16.484;102.872;2022-07-23T02:10:46;4.68;;;4.20;;
18574;SDS011;9417;16.484;102.872;2022-07-23T02:12:56;6.97;;;4.35;;
18574;SDS011;9417;16.484;102.872;2022-07-23T02:15:04;5.10;;;4.45;;
18574;SDS011;9417;16.484;102.872;2022-07-23T02:17:15;4.22;;;3.83;;
18574;SDS011;9417;16.484;102.872;2022-07-23T02:19:22;4.78;;;3.80;;
18574;SDS011;9417;16.484;102.872;2022-07-23T02:21:30;4.95;;;3.78;;
18574;SDS011;9417;16.484;102.872;2022-07-23T02:23:37;5.55;;;4.22;;
18574;SDS011;9417;16.484;102.872;2022-07-23T02:25:45;4.35;;;3.78;;
18574;SDS011;9417;16.484;102.872;2022-07-23T02:27:52;5.10;;;4.05;;
18574;SDS011;9417;16.484;102.872;2022-07-23T02:30:02;4.18;;;3.78;;
18574;SDS011;9417;16.484;102.872;2022-07-23T02:32:10;4.63;;;3.58;;
18574;SDS011;9417;16.484;102.872;2022-07-23T02:34:18;4.22;;;3.50;;
18574;SDS011;9417;16.484;102.872;2022-07-23T02:36:26;4.68;;;3.20;;
18574;SDS011;9417;16.484;102.872;2022-07-23T02:38:34;4.07;;;3.13;;
18574;SDS011;9417;16.484;102.872;2022-07-23T02:40:42;4.20;;;3.08;;
18574;SDS011;9417;16.484;102.872;2022-07-23T02:42:49;3.78;;;3.03;;
18574;SDS011;9417;16.484;102.872;2022-07-23T02:44:56;4.25;;;3.20;;
18574;SDS011;9417;16.484;102.872;2022-07-23T02:47:05;3.58;;;2.90;;
18574;SDS011;9417;16.484;102.872;2022-07-23T02:49:13;4.05;;;3.20;;
18574;SDS011;9417;16.484;102.872;2022-07-23T02:51:22;4.32;;;3.03;;
18574;SDS011;9417;16.484;102.872;2022-07-23T02:53:34;3.70;;;3.00;;
18574;SDS011;9417;16.484;102.872;2022-07-23T02:55:41;3.33;;;3.03;;
18574;SDS011;9417;16.484;102.872;2022-07-23T02:57:48;3.15;;;2.70;;
18574;SDS011;9417;16.484;102.872;2022-07-23T02:59:55;4.05;;;3.05;;
18574;SDS011;9417;16.484;102.872;2022-07-23T03:02:03;2.85;;;2.53;;
18574;SDS011;9417;16.484;102.872;2022-07-23T03:04:13;2.88;;;2.58;;
18574;SDS011;9417;16.484;102.872;2022-07-23T03:06:20;3.28;;;2.78;;
18574;SDS011;9417;16.484;102.872;2022-07-23T03:08:28;4.40;;;3.10;;
18574;SDS011;9417;16.484;102.872;2022-07-23T03:10:35;4.03;;;3.03;;
18574;SDS011;9417;16.484;102.872;2022-07-23T03:12:43;3.20;;;2.80;;
18574;SDS011;9417;16.484;102.872;2022-07-23T03:14:52;4.75;;;2.88;;
18574;SDS011;9417;16.484;102.872;2022-07-23T03:16:59;4.57;;;2.70;;
18574;SDS011;9417;16.484;102.872;2022-07-23T03:19:08;3.38;;;2.70;;
18574;SDS011;9417;16.484;102.872;2022-07-23T03:21:16;3.70;;;2.25;;
18574;SDS011;9417;16.484;102.872;2022-07-23T03:23:23;3.03;;;2.40;;
18574;SDS011;9417;16.484;102.872;2022-07-23T03:25:31;4.68;;;2.60;;
18574;SDS011;9417;16.484;102.872;2022-07-23T03:27:39;3.42;;;2.78;;
18574;SDS011;9417;16.484;102.872;2022-07-23T03:29:46;2.88;;;2.58;;
18574;SDS011;9417;16.484;102.872;2022-07-23T03:31:53;3.20;;;2.75;;
18574;SDS011;9417;16.484;102.872;2022-07-23T03:34:01;2.90;;;2.58;;
18574;SDS011;9417;16.484;102.872;2022-07-23T03:36:10;3.17;;;2.53;;
18574;SDS011;9417;16.484;102.872;2022-07-23T03:38:20;2.95;;;2.67;;
18574;SDS011;9417;16.484;102.872;2022-07-23T03:40:28;2.85;;;2.55;;
18574;SDS011;9417;16.484;102.872;2022-07-23T03:42:36;4.20;;;3.10;;
18574;SDS011;9417;16.484;102.872;2022-07-23T03:44:45;4.85;;;3.00;;
18574;SDS011;9417;16.484;102.872;2022-07-23T03:46:53;4.32;;;3.35;;
18574;SDS011;9417;16.484;102.872;2022-07-23T03:49:00;4.40;;;3.03;;
18574;SDS011;9417;16.484;102.872;2022-07-23T03:51:11;3.72;;;3.05;;
18574;SDS011;9417;16.484;102.872;2022-07-23T03:53:18;3.40;;;3.03;;
18574;SDS011;9417;16.484;102.872;2022-07-23T03:55:25;3.55;;;2.88;;
18574;SDS011;9417;16.484;102.872;2022-07-23T03:57:33;3.30;;;2.58;;
18574;SDS011;9417;16.484;102.872;2022-07-23T03:59:40;3.60;;;3.28;;
18574;SDS011;9417;16.484;102.872;2022-07-23T04:01:47;4.13;;;3.08;;
18574;SDS011;9417;16.484;102.872;2022-07-23T04:03:54;4.30;;;3.08;;
18574;SDS011;9417;16.484;102.872;2022-07-23T04:06:02;3.65;;;2.88;;
18574;SDS011;9417;16.484;102.872;2022-07-23T04:08:13;5.75;;;3.65;;
18574;SDS011;9417;16.484;102.872;2022-07-23T04:10:25;3.50;;;3.20;;
18574;SDS011;9417;16.484;102.872;2022-07-23T04:12:32;5.03;;;3.33;;
18574;SDS011;9417;16.484;102.872;2022-07-23T04:14:39;3.50;;;3.17;;
18574;SDS011;9417;16.484;102.872;2022-07-23T04:16:47;4.28;;;3.08;;
18574;SDS011;9417;16.484;102.872;2022-07-23T04:18:55;4.03;;;3.55;;
18574;SDS011;9417;16.484;102.872;2022-07-23T04:21:08;5.13;;;3.50;;
18574;SDS011;9417;16.484;102.872;2022-07-23T04:23:17;5.28;;;3.67;;
18574;SDS011;9417;16.484;102.872;2022-07-23T04:25:29;4.88;;;3.72;;
18574;SDS011;9417;16.484;102.872;2022-07-23T04:27:36;4.95;;;3.20;;
18574;SDS011;9417;16.484;102.872;2022-07-23T04:29:43;4.07;;;3.55;;
18574;SDS011;9417;16.484;102.872;2022-07-23T04:31:50;4.18;;;3.78;;
18574;SDS011;9417;16.484;102.872;2022-07-23T04:33:58;4.05;;;3.72;;
18574;SDS011;9417;16.484;102.872;2022-07-23T04:36:05;5.78;;;3.40;;
18574;SDS011;9417;16.484;102.872;2022-07-23T04:38:13;5.97;;;3.53;;
18574;SDS011;9417;16.484;102.872;2022-07-23T04:40:24;3.70;;;3.30;;
18574;SDS011;9417;16.484;102.872;2022-07-23T04:42:32;6.00;;;3.42;;
18574;SDS011;9417;16.484;102.872;2022-07-23T04:44:39;7.50;;;3.60;;
18574;SDS011;9417;16.484;102.872;2022-07-23T04:46:48;4.65;;;3.50;;
18574;SDS011;9417;16.484;102.872;2022-07-23T04:48:55;4.72;;;3.53;;
18574;SDS011;9417;16.484;102.872;2022-07-23T04:51:03;8.55;;;3.80;;
18574;SDS011;9417;16.484;102.872;2022-07-23T04:53:11;3.33;;;3.03;;
18574;SDS011;9417;16.484;102.872;2022-07-23T04:55:18;4.88;;;3.70;;
18574;SDS011;9417;16.484;102.872;2022-07-23T04:57:27;4.65;;;3.50;;
18574;SDS011;9417;16.484;102.872;2022-07-23T04:59:34;4.70;;;3.05;;
18574;SDS011;9417;16.484;102.872;2022-07-23T05:01:43;6.35;;;3.28;;
18574;SDS011;9417;16.484;102.872;2022-07-23T05:03:50;6.85;;;3.25;;
18574;SDS011;9417;16.484;102.872;2022-07-23T05:06:01;3.67;;;3.10;;
18574;SDS011;9417;16.484;102.872;2022-07-23T05:08:09;5.72;;;3.10;;
18574;SDS011;9417;16.484;102.872;2022-07-23T05:10:19;6.22;;;3.30;;
18574;SDS011;9417;16.484;102.872;2022-07-23T05:12:30;4.47;;;3.25;;
18574;SDS011;9417;16.484;102.872;2022-07-23T05:14:38;3.65;;;2.97;;
18574;SDS011;9417;16.484;102.872;2022-07-23T05:16:45;3.47;;;2.90;;
18574;SDS011;9417;16.484;102.872;2022-07-23T05:18:57;3.35;;;2.70;;
18574;SDS011;9417;16.484;102.872;2022-07-23T05:21:07;3.10;;;2.80;;
18574;SDS011;9417;16.484;102.872;2022-07-23T05:23:15;4.35;;;3.28;;
18574;SDS011;9417;16.484;102.872;2022-07-23T05:25:24;3.47;;;3.00;;
18574;SDS011;9417;16.484;102.872;2022-07-23T05:27:33;4.00;;;3.10;;
18574;SDS011;9417;16.484;102.872;2022-07-23T05:29:41;5.05;;;2.90;;
18574;SDS011;9417;16.484;102.872;2022-07-23T05:31:48;3.55;;;2.90;;
18574;SDS011;9417;16.484;102.872;2022-07-23T05:33:56;3.60;;;2.78;;
18574;SDS011;9417;16.484;102.872;2022-07-23T05:36:04;3.33;;;3.00;;
18574;SDS011;9417;16.484;102.872;2022-07-23T05:38:19;2.92;;;2.65;;
18574;SDS011;9417;16.484;102.872;2022-07-23T05:40:27;3.28;;;2.97;;
18574;SDS011;9417;16.484;102.872;2022-07-23T05:42:38;4.50;;;2.83;;
18574;SDS011;9417;16.484;102.872;2022-07-23T05:44:45;3.08;;;2.58;;
18574;SDS011;9417;16.484;102.872;2022-07-23T05:46:53;2.80;;;2.10;;
18574;SDS011;9417;16.484;102.872;2022-07-23T05:49:03;2.10;;;1.90;;
18574;SDS011;9417;16.484;102.872;2022-07-23T05:51:30;3.55;;;2.00;;
18574;SDS011;9417;16.484;102.872;2022-07-23T05:53:37;2.67;;;1.70;;
18574;SDS011;9417;16.484;102.872;2022-07-23T05:55:49;2.42;;;1.73;;
18574;SDS011;9417;16.484;102.872;2022-07-23T05:57:58;2.40;;;2.13;;
18574;SDS011;9417;16.484;102.872;2022-07-23T06:00:07;3.47;;;2.10;;
18574;SDS011;9417;16.484;102.872;2022-07-23T06:02:17;3.17;;;2.20;;
18574;SDS011;9417;16.484;102.872;2022-07-23T06:04:24;3.05;;;1.50;;
18574;SDS011;9417;16.484;102.872;2022-07-23T06:06:49;1.95;;;1.30;;
18574;SDS011;9417;16.484;102.872;2022-07-23T06:08:56;2.95;;;1.60;;
18574;SDS011;9417;16.484;102.872;2022-07-23T06:11:04;3.05;;;1.60;;
18574;SDS011;9417;16.484;102.872;2022-07-23T06:13:13;2.88;;;1.80;;
18574;SDS011;9417;16.484;102.872;2022-07-23T06:15:21;3.47;;;1.60;;
18574;SDS011;9417;16.484;102.872;2022-07-23T06:17:29;1.63;;;1.27;;
18574;SDS011;9417;16.484;102.872;2022-07-23T06:19:37;3.20;;;1.30;;
18574;SDS011;9417;16.484;102.872;2022-07-23T06:21:44;2.22;;;1.40;;
18574;SDS011;9417;16.484;102.872;2022-07-23T06:23:52;2.53;;;1.38;;
18574;SDS011;9417;16.484;102.872;2022-07-23T06:25:59;1.30;;;1.20;;
18574;SDS011;9417;16.484;102.872;2022-07-23T06:28:06;2.00;;;1.30;;
18574;SDS011;9417;16.484;102.872;2022-07-23T06:30:18;1.88;;;1.30;;
18574;SDS011;9417;16.484;102.872;2022-07-23T06:32:26;1.60;;;1.08;;
18574;SDS011;9417;16.484;102.872;2022-07-23T06:34:34;3.00;;;1.60;;
18574;SDS011;9417;16.484;102.872;2022-07-23T06:36:46;1.35;;;1.10;;
18574;SDS011;9417;16.484;102.872;2022-07-23T06:38:53;3.10;;;1.30;;
18574;SDS011;9417;16.484;102.872;2022-07-23T06:41:01;3.08;;;1.30;;
18574;SDS011;9417;16.484;102.872;2022-07-23T06:43:08;1.55;;;1.33;;
18574;SDS011;9417;16.484;102.872;2022-07-23T06:45:20;3.03;;;1.35;;
18574;SDS011;9417;16.484;102.872;2022-07-23T06:47:28;1.52;;;1.17;;
18574;SDS011;9417;16.484;102.872;2022-07-23T06:49:35;2.35;;;1.65;;
18574;SDS011;9417;16.484;102.872;2022-07-23T06:51:45;3.25;;;1.60;;
18574;SDS011;9417;16.484;102.872;2022-07-23T06:53:52;2.63;;;1.80;;
18574;SDS011;9417;16.484;102.872;2022-07-23T06:56:01;2.75;;;1.33;;
18574;SDS011;9417;16.484;102.872;2022-07-23T06:58:08;2.60;;;1.30;;
18574;SDS011;9417;16.484;102.872;2022-07-23T07:00:15;2.05;;;1.52;;
18574;SDS011;9417;16.484;102.872;2022-07-23T07:02:24;3.05;;;1.40;;
18574;SDS011;9417;16.484;102.872;2022-07-23T07:04:32;3.03;;;1.10;;
18574;SDS011;9417;16.484;102.872;2022-07-23T07:06:39;2.35;;;0.90;;
18574;SDS011;9417;16.484;102.872;2022-07-23T07:08:46;2.22;;;1.20;;
18574;SDS011;9417;16.484;102.872;2022-07-23T07:10:53;2.33;;;1.15;;
18574;SDS011;9417;16.484;102.872;2022-07-23T07:13:00;2.13;;;1.30;;
18574;SDS011;9417;16.484;102.872;2022-07-23T07:15:07;2.40;;;1.23;;
18574;SDS011;9417;16.484;102.872;2022-07-23T07:17:15;1.60;;;1.10;;
18574;SDS011;9417;16.484;102.872;2022-07-23T07:19:24;2.10;;;1.42;;
18574;SDS011;9417;16.484;102.872;2022-07-23T07:21:31;2.70;;;1.23;;
18574;SDS011;9417;16.484;102.872;2022-07-23T07:23:39;1.88;;;1.25;;
18574;SDS011;9417;16.484;102.872;2022-07-23T07:25:46;1.48;;;1.20;;
18574;SDS011;9417;16.484;102.872;2022-07-23T07:27:53;1.83;;;1.40;;
18574;SDS011;9417;16.484;102.872;2022-07-23T07:30:01;2.90;;;1.30;;
18574;SDS011;9417;16.484;102.872;2022-07-23T07:32:08;2.38;;;1.50;;
18574;SDS011;9417;16.484;102.872;2022-07-23T07:34:37;2.05;;;1.35;;
18574;SDS011;9417;16.484;102.872;2022-07-23T07:36:44;1.33;;;1.10;;
18574;SDS011;9417;16.484;102.872;2022-07-23T07:38:51;1.75;;;1.10;;
18574;SDS011;9417;16.484;102.872;2022-07-23T07:40:58;1.58;;;1.02;;
18574;SDS011;9417;16.484;102.872;2022-07-23T07:43:05;1.33;;;0.90;;
18574;SDS011;9417;16.484;102.872;2022-07-23T07:45:13;3.50;;;1.35;;
18574;SDS011;9417;16.484;102.872;2022-07-23T07:47:20;2.25;;;0.90;;
18574;SDS011;9417;16.484;102.872;2022-07-23T07:49:27;1.75;;;1.10;;
18574;SDS011;9417;16.484;102.872;2022-07-23T07:51:57;5.28;;;1.02;;
18574;SDS011;9417;16.484;102.872;2022-07-23T07:54:05;1.38;;;0.98;;
18574;SDS011;9417;16.484;102.872;2022-07-23T07:56:12;2.13;;;0.90;;
18574;SDS011;9417;16.484;102.872;2022-07-23T07:58:20;1.40;;;0.80;;
18574;SDS011;9417;16.484;102.872;2022-07-23T08:00:27;1.58;;;1.00;;
18574;SDS011;9417;16.484;102.872;2022-07-23T08:02:39;1.75;;;0.93;;
18574;SDS011;9417;16.484;102.872;2022-07-23T08:04:51;3.05;;;0.85;;
18574;SDS011;9417;16.484;102.872;2022-07-23T08:07:03;2.25;;;1.50;;
18574;SDS011;9417;16.484;102.872;2022-07-23T08:09:10;2.08;;;1.10;;
18574;SDS011;9417;16.484;102.872;2022-07-23T08:11:17;1.75;;;1.10;;
18574;SDS011;9417;16.484;102.872;2022-07-23T08:13:24;2.97;;;1.23;;
18574;SDS011;9417;16.484;102.872;2022-07-23T08:15:31;2.67;;;1.30;;
18574;SDS011;9417;16.484;102.872;2022-07-23T08:17:40;2.22;;;1.02;;
18574;SDS011;9417;16.484;102.872;2022-07-23T08:19:47;1.70;;;1.10;;
18574;SDS011;9417;16.484;102.872;2022-07-23T08:21:54;2.28;;;1.30;;
18574;SDS011;9417;16.484;102.872;2022-07-23T08:24:04;2.47;;;1.35;;
18574;SDS011;9417;16.484;102.872;2022-07-23T08:26:11;1.02;;;0.93;;
18574;SDS011;9417;16.484;102.872;2022-07-23T08:28:18;1.20;;;1.08;;
18574;SDS011;9417;16.484;102.872;2022-07-23T08:30:26;2.15;;;1.15;;
18574;SDS011;9417;16.484;102.872;2022-07-23T08:32:34;2.00;;;1.00;;
18574;SDS011;9417;16.484;102.872;2022-07-23T08:34:55;1.50;;;1.02;;
18574;SDS011;9417;16.484;102.872;2022-07-23T08:37:02;2.28;;;1.30;;
18574;SDS011;9417;16.484;102.872;2022-07-23T08:39:11;3.08;;;0.90;;
18574;SDS011;9417;16.484;102.872;2022-07-23T08:41:18;1.83;;;1.08;;
18574;SDS011;9417;16.484;102.872;2022-07-23T08:43:26;2.63;;;1.23;;
18574;SDS011;9417;16.484;102.872;2022-07-23T08:45:35;1.63;;;1.13;;
18574;SDS011;9417;16.484;102.872;2022-07-23T08:47:44;1.65;;;1.13;;
18574;SDS011;9417;16.484;102.872;2022-07-23T08:49:55;1.60;;;1.27;;
18574;SDS011;9417;16.484;102.872;2022-07-23T08:52:06;2.03;;;1.40;;
18574;SDS011;9417;16.484;102.872;2022-07-23T08:54:15;2.08;;;1.27;;
18574;SDS011;9417;16.484;102.872;2022-07-23T08:56:23;3.28;;;1.50;;
18574;SDS011;9417;16.484;102.872;2022-07-23T08:58:30;2.35;;;1.45;;
18574;SDS011;9417;16.484;102.872;2022-07-23T09:00:37;2.88;;;1.50;;
18574;SDS011;9417;16.484;102.872;2022-07-23T09:02:45;1.88;;;1.30;;
18574;SDS011;9417;16.484;102.872;2022-07-23T09:04:53;2.15;;;1.20;;
18574;SDS011;9417;16.484;102.872;2022-07-23T09:07:00;2.60;;;1.50;;
18574;SDS011;9417;16.484;102.872;2022-07-23T09:09:18;2.08;;;1.30;;
18574;SDS011;9417;16.484;102.872;2022-07-23T09:11:26;1.70;;;1.40;;
18574;SDS011;9417;16.484;102.872;2022-07-23T09:13:34;1.98;;;1.33;;
18574;SDS011;9417;16.484;102.872;2022-07-23T09:15:48;2.55;;;1.42;;
18574;SDS011;9417;16.484;102.872;2022-07-23T09:17:55;2.00;;;1.30;;
18574;SDS011;9417;16.484;102.872;2022-07-23T09:20:07;2.13;;;1.30;;
18574;SDS011;9417;16.484;102.872;2022-07-23T09:22:16;1.92;;;1.23;;
18574;SDS011;9417;16.484;102.872;2022-07-23T09:24:31;2.50;;;1.35;;
18574;SDS011;9417;16.484;102.872;2022-07-23T09:26:39;1.92;;;1.25;;
18574;SDS011;9417;16.484;102.872;2022-07-23T09:28:49;2.97;;;1.20;;
18574;SDS011;9417;16.484;102.872;2022-07-23T09:33:08;1.80;;;1.30;;
18574;SDS011;9417;16.484;102.872;2022-07-23T09:35:17;2.17;;;1.33;;
18574;SDS011;9417;16.484;102.872;2022-07-23T09:37:24;2.90;;;1.33;;
18574;SDS011;9417;16.484;102.872;2022-07-23T09:39:33;3.67;;;1.33;;
18574;SDS011;9417;16.484;102.872;2022-07-23T09:41:41;2.30;;;1.48;;
18574;SDS011;9417;16.484;102.872;2022-07-23T09:43:54;1.73;;;1.27;;
18574;SDS011;9417;16.484;102.872;2022-07-23T09:46:18;2.13;;;1.50;;
18574;SDS011;9417;16.484;102.872;2022-07-23T09:48:27;2.35;;;1.50;;
18574;SDS011;9417;16.484;102.872;2022-07-23T09:50:34;2.35;;;1.35;;
18574;SDS011;9417;16.484;102.872;2022-07-23T09:52:42;2.60;;;1.67;;
18574;SDS011;9417;16.484;102.872;2022-07-23T09:54:56;2.33;;;1.67;;
18574;SDS011;9417;16.484;102.872;2022-07-23T09:57:05;3.05;;;1.60;;
18574;SDS011;9417;16.484;102.872;2022-07-23T09:59:17;2.40;;;1.40;;
18574;SDS011;9417;16.484;102.872;2022-07-23T10:01:28;2.17;;;1.30;;
18574;SDS011;9417;16.484;102.872;2022-07-23T10:03:36;2.38;;;1.45;;
18574;SDS011;9417;16.484;102.872;2022-07-23T10:05:56;3.65;;;1.60;;
18574;SDS011;9417;16.484;102.872;2022-07-23T10:08:17;2.28;;;1.30;;
18574;SDS011;9417;16.484;102.872;2022-07-23T10:10:39;3.17;;;1.40;;
18574;SDS011;9417;16.484;102.872;2022-07-23T10:12:49;2.10;;;1.50;;
18574;SDS011;9417;16.484;102.872;2022-07-23T10:15:24;1.70;;;1.48;;
18574;SDS011;9417;16.484;102.872;2022-07-23T10:17:31;1.50;;;1.30;;
18574;SDS011;9417;16.484;102.872;2022-07-23T10:19:39;2.90;;;1.83;;
18574;SDS011;9417;16.484;102.872;2022-07-23T10:21:48;2.28;;;1.30;;
18574;SDS011;9417;16.484;102.872;2022-07-23T10:24:06;2.47;;;1.60;;
18574;SDS011;9417;16.484;102.872;2022-07-23T10:26:29;3.42;;;1.50;;
18574;SDS011;9417;16.484;102.872;2022-07-23T10:28:56;2.00;;;1.65;;
18574;SDS011;9417;16.484;102.872;2022-07-23T10:31:14;3.10;;;1.58;;
18574;SDS011;9417;16.484;102.872;2022-07-23T10:33:54;2.60;;;1.80;;
18574;SDS011;9417;16.484;102.872;2022-07-23T10:36:09;2.40;;;1.85;;
18574;SDS011;9417;16.484;102.872;2022-07-23T10:38:24;3.70;;;1.95;;
18574;SDS011;9417;16.484;102.872;2022-07-23T10:40:33;3.42;;;1.67;;
18574;SDS011;9417;16.484;102.872;2022-07-23T10:42:42;2.85;;;1.83;;
18574;SDS011;9417;16.484;102.872;2022-07-23T10:44:50;3.45;;;1.70;;
18574;SDS011;9417;16.484;102.872;2022-07-23T10:46:58;3.00;;;1.60;;
18574;SDS011;9417;16.484;102.872;2022-07-23T10:49:21;3.95;;;2.10;;
18574;SDS011;9417;16.484;102.872;2022-07-23T10:51:31;3.38;;;1.88;;
18574;SDS011;9417;16.484;102.872;2022-07-23T10:56:07;3.33;;;1.95;;
18574;SDS011;9417;16.484;102.872;2022-07-23T11:00:52;3.63;;;2.22;;
18574;SDS011;9417;16.484;102.872;2022-07-23T11:03:00;4.10;;;2.60;;
18574;SDS011;9417;16.484;102.872;2022-07-23T11:05:11;5.60;;;2.63;;
18574;SDS011;9417;16.484;102.872;2022-07-23T11:07:20;3.53;;;2.33;;
18574;SDS011;9417;16.484;102.872;2022-07-23T11:09:28;4.38;;;2.13;;
18574;SDS011;9417;16.484;102.872;2022-07-23T11:11:36;4.88;;;2.67;;
18574;SDS011;9417;16.484;102.872;2022-07-23T11:13:49;9.10;;;3.30;;
18574;SDS011;9417;16.484;102.872;2022-07-23T11:16:04;7.40;;;2.88;;
18574;SDS011;9417;16.484;102.872;2022-07-23T11:18:14;4.57;;;2.67;;
18574;SDS011;9417;16.484;102.872;2022-07-23T11:20:22;3.53;;;2.40;;
18574;SDS011;9417;16.484;102.872;2022-07-23T11:22:34;3.72;;;2.65;;
18574;SDS011;9417;16.484;102.872;2022-07-23T11:24:50;3.63;;;2.40;;
18574;SDS011;9417;16.484;102.872;2022-07-23T11:27:01;4.10;;;2.40;;
18574;SDS011;9417;16.484;102.872;2022-07-23T11:31:51;3.42;;;2.67;;
18574;SDS011;9417;16.484;102.872;2022-07-23T11:36:48;5.45;;;2.50;;
18574;SDS011;9417;16.484;102.872;2022-07-23T11:38:56;7.72;;;5.00;;
18574;SDS011;9417;16.484;102.872;2022-07-23T11:41:04;6.60;;;5.18;;
18574;SDS011;9417;16.484;102.872;2022-07-23T11:43:14;12.60;;;8.68;;
18574;SDS011;9417;16.484;102.872;2022-07-23T11:45:23;11.57;;;8.02;;
18574;SDS011;9417;16.484;102.872;2022-07-23T11:47:32;12.02;;;7.07;;
18574;SDS011;9417;16.484;102.872;2022-07-23T11:49:43;7.03;;;5.35;;
18574;SDS011;9417;16.484;102.872;2022-07-23T11:52:02;10.25;;;4.00;;
18574;SDS011;9417;16.484;102.872;2022-07-23T11:54:10;4.68;;;3.70;;
18574;SDS011;9417;16.484;102.872;2022-07-23T11:56:17;5.57;;;3.72;;
18574;SDS011;9417;16.484;102.872;2022-07-23T11:58:24;4.72;;;3.20;;
18574;SDS011;9417;16.484;102.872;2022-07-23T12:00:33;6.57;;;3.90;;
18574;SDS011;9417;16.484;102.872;2022-07-23T12:02:42;6.80;;;3.63;;
18574;SDS011;9417;16.484;102.872;2022-07-23T12:04:51;5.93;;;3.35;;
18574;SDS011;9417;16.484;102.872;2022-07-23T12:06:59;8.60;;;3.47;;
18574;SDS011;9417;16.484;102.872;2022-07-23T12:09:06;6.10;;;3.15;;
18574;SDS011;9417;16.484;102.872;2022-07-23T12:11:16;4.95;;;3.17;;
18574;SDS011;9417;16.484;102.872;2022-07-23T12:13:23;6.70;;;3.78;;
18574;SDS011;9417;16.484;102.872;2022-07-23T12:15:30;6.28;;;4.20;;
18574;SDS011;9417;16.484;102.872;2022-07-23T12:17:43;6.85;;;4.07;;
18574;SDS011;9417;16.484;102.872;2022-07-23T12:19:53;9.98;;;3.97;;
18574;SDS011;9417;16.484;102.872;2022-07-23T12:22:01;8.25;;;4.30;;
18574;SDS011;9417;16.484;102.872;2022-07-23T12:24:09;6.10;;;4.00;;
18574;SDS011;9417;16.484;102.872;2022-07-23T12:26:17;6.07;;;4.07;;
18574;SDS011;9417;16.484;102.872;2022-07-23T12:28:27;5.57;;;4.05;;
18574;SDS011;9417;16.484;102.872;2022-07-23T12:30:39;9.57;;;4.45;;
18574;SDS011;9417;16.484;102.872;2022-07-23T12:32:48;8.15;;;4.32;;
18574;SDS011;9417;16.484;102.872;2022-07-23T12:35:03;7.07;;;4.20;;
18574;SDS011;9417;16.484;102.872;2022-07-23T12:37:24;5.00;;;3.40;;
18574;SDS011;9417;16.484;102.872;2022-07-23T12:39:34;9.57;;;4.40;;
18574;SDS011;9417;16.484;102.872;2022-07-23T12:41:51;8.48;;;3.97;;
18574;SDS011;9417;16.484;102.872;2022-07-23T12:44:00;6.40;;;3.63;;
18574;SDS011;9417;16.484;102.872;2022-07-23T12:46:22;7.10;;;3.67;;
18574;SDS011;9417;16.484;102.872;2022-07-23T12:48:30;5.57;;;3.65;;
18574;SDS011;9417;16.484;102.872;2022-07-23T12:50:44;6.53;;;4.10;;
18574;SDS011;9417;16.484;102.872;2022-07-23T12:53:01;6.55;;;4.00;;
18574;SDS011;9417;16.484;102.872;2022-07-23T12:55:26;8.48;;;4.47;;
18574;SDS011;9417;16.484;102.872;2022-07-23T12:57:54;6.38;;;3.70;;
18574;SDS011;9417;16.484;102.872;2022-07-23T13:00:10;8.80;;;3.83;;
18574;SDS011;9417;16.484;102.872;2022-07-23T13:02:20;8.18;;;4.53;;